createdAt,value
2023-02-06T00:00:28.348Z,29.32
2023-02-06T00:01:28.381Z,33.03
2023-02-06T00:02:28.416Z,27.81
2023-02-06T00:03:28.395Z,30.61
2023-02-06T00:04:28.397Z,30.01
2023-02-06T00:05:28.389Z,31.33
2023-02-06T00:06:28.445Z,30.52
2023-02-06T00:07:28.416Z,30.24
2023-02-06T00:08:28.416Z,30.27
2023-02-06T00:09:28.432Z,30.62
2023-02-06T00:10:28.471Z,33.13
2023-02-06T00:11:28.486Z,30.94
2023-02-06T00:12:28.507Z,29.40
2023-02-06T00:13:28.515Z,28.17
2023-02-06T00:14:28.528Z,30.78
2023-02-06T00:15:28.605Z,29.58
2023-02-06T00:16:28.573Z,34.07
2023-02-06T00:17:28.650Z,32.41
2023-02-06T00:18:28.649Z,32.06
2023-02-06T00:19:28.654Z,32.35
2023-02-06T00:20:28.710Z,30.90
2023-02-06T00:21:28.773Z,30.73
2023-02-06T00:22:28.821Z,27.74
2023-02-06T00:23:28.839Z,27.22
2023-02-06T00:24:28.842Z,30.85
2023-02-06T00:25:28.916Z,30.50
2023-02-06T00:26:28.934Z,30.83
2023-02-06T00:27:28.995Z,26.28
2023-02-06T00:28:29.046Z,30.42
2023-02-06T00:29:29.075Z,31.12
2023-02-06T00:30:29.175Z,31.71
2023-02-06T00:31:29.212Z,32.25
2023-02-06T00:32:29.271Z,33.04
2023-02-06T00:33:29.264Z,32.29
2023-02-06T00:34:29.301Z,30.33
2023-02-06T00:35:29.353Z,32.51
2023-02-06T00:36:29.394Z,31.40
2023-02-06T00:37:29.490Z,32.15
2023-02-06T00:38:29.540Z,34.44
2023-02-06T00:39:29.560Z,39.72
2023-02-06T00:40:29.639Z,32.68
2023-02-06T00:41:29.666Z,33.60
2023-02-06T00:42:29.730Z,36.69
2023-02-06T00:43:29.779Z,34.62
2023-02-06T00:44:29.828Z,33.83
2023-02-06T00:45:29.886Z,36.44
2023-02-06T00:46:29.950Z,35.68
2023-02-06T00:47:30.024Z,34.51
2023-02-06T00:48:30.061Z,34.92
2023-02-06T00:49:30.118Z,35.26
2023-02-06T00:50:30.158Z,36.23
2023-02-06T00:51:30.232Z,38.05
2023-02-06T00:52:30.309Z,35.63
2023-02-06T00:56:30.532Z,36.73
2023-02-06T00:57:30.579Z,36.13
2023-02-06T00:58:30.618Z,38.35
2023-02-06T00:59:30.676Z,37.54
2023-02-06T01:00:30.722Z,38.90
2023-02-06T01:01:30.806Z,35.76
2023-02-06T01:02:30.845Z,37.39
2023-02-06T01:03:30.874Z,37.28
2023-02-06T01:04:30.911Z,37.91
2023-02-06T01:05:30.976Z,34.96
2023-02-06T01:06:31.000Z,36.76
2023-02-06T01:07:31.072Z,34.91
2023-02-06T01:08:31.562Z,38.65
2023-02-06T01:09:31.174Z,41.83
2023-02-06T01:10:31.198Z,37.87
2023-02-06T01:11:37.233Z,37.72
2023-02-06T01:12:32.536Z,37.95
2023-02-06T01:13:31.267Z,38.32
2023-02-06T01:14:31.301Z,39.02
2023-02-06T01:15:31.265Z,39.38
2023-02-06T01:16:31.264Z,40.57
2023-02-06T01:17:31.284Z,41.20
2023-02-06T01:18:31.292Z,39.58
2023-02-06T01:19:31.292Z,41.43
2023-02-06T01:24:31.441Z,39.30
2023-02-06T01:25:31.492Z,41.41
2023-02-06T01:26:31.546Z,40.69
2023-02-06T01:27:31.587Z,43.70
2023-02-06T01:28:31.625Z,43.23
2023-02-06T01:29:31.707Z,42.18
2023-02-06T01:30:31.755Z,44.14
2023-02-06T01:32:31.852Z,40.22
2023-02-06T01:33:31.910Z,42.06
2023-02-06T01:34:31.976Z,41.47
2023-02-06T01:35:32.012Z,41.39
2023-02-06T01:43:32.415Z,42.94
2023-02-06T01:44:32.478Z,43.11
2023-02-06T01:45:32.515Z,40.62
2023-02-06T01:46:32.559Z,40.18
2023-02-06T01:47:32.610Z,39.63
2023-02-06T01:48:32.647Z,41.02
2023-02-06T01:49:32.680Z,42.07
2023-02-06T01:50:32.775Z,40.83
2023-02-06T01:51:32.805Z,42.43
2023-02-06T01:52:32.843Z,41.94
2023-02-06T01:53:32.894Z,44.35
2023-02-06T01:54:32.921Z,38.24
2023-02-06T01:55:33.038Z,39.51
2023-02-06T01:56:33.005Z,40.28
2023-02-06T01:57:33.078Z,39.13
2023-02-06T01:58:33.142Z,37.62
2023-02-06T01:59:33.156Z,38.02
2023-02-06T02:00:33.312Z,42.69
2023-02-06T02:01:33.283Z,39.26
2023-02-06T02:02:33.287Z,39.78
2023-02-06T02:03:33.397Z,39.98
2023-02-06T02:04:33.394Z,40.38
2023-02-06T02:05:33.640Z,42.18
2023-02-06T02:06:33.451Z,42.63
2023-02-06T02:07:33.494Z,42.04
2023-02-06T02:08:33.571Z,40.18
2023-02-06T02:09:33.667Z,40.10
2023-02-06T02:10:33.648Z,39.21
2023-02-06T02:11:33.659Z,39.26
2023-02-06T02:12:33.748Z,41.02
2023-02-06T02:13:33.779Z,37.64
2023-02-06T02:14:33.820Z,38.25
2023-02-06T02:15:34.237Z,36.34
2023-02-06T02:16:33.932Z,38.61
2023-02-06T02:17:33.924Z,42.61
2023-02-06T02:18:33.962Z,39.43
2023-02-06T02:19:33.989Z,40.07
2023-02-06T02:20:34.072Z,41.13
2023-02-06T02:21:34.078Z,42.11
2023-02-06T02:22:34.113Z,41.47
2023-02-06T02:23:34.205Z,38.77
2023-02-06T02:24:34.212Z,41.11
2023-02-06T02:25:34.541Z,40.75
2023-02-06T02:26:34.274Z,43.26
2023-02-06T02:27:34.365Z,41.63
2023-02-06T02:28:34.392Z,38.94
2023-02-06T02:29:34.432Z,40.43
2023-02-06T02:30:34.486Z,38.28
2023-02-06T02:31:34.565Z,42.52
2023-02-06T02:32:34.595Z,40.56
2023-02-06T02:33:34.594Z,39.54
2023-02-06T02:34:34.616Z,39.19
2023-02-06T02:35:34.957Z,39.52
2023-02-06T02:36:34.708Z,38.72
2023-02-06T02:37:34.706Z,38.40
2023-02-06T02:38:34.759Z,38.40
2023-02-06T02:39:34.820Z,40.70
2023-02-06T02:40:34.839Z,39.16
2023-02-06T02:41:34.887Z,39.63
2023-02-06T02:42:34.899Z,41.63
2023-02-06T02:43:34.939Z,37.09
2023-02-06T02:44:34.976Z,37.70
2023-02-06T02:45:35.472Z,41.12
2023-02-06T02:46:35.041Z,35.96
2023-02-06T02:47:35.067Z,38.06
2023-02-06T02:48:35.139Z,40.58
2023-02-06T02:49:35.147Z,39.63
2023-02-06T02:50:35.194Z,38.75
2023-02-06T02:51:35.246Z,39.57
2023-02-06T02:52:35.269Z,39.08
2023-02-06T02:53:35.294Z,38.59
2023-02-06T02:54:35.399Z,40.51
2023-02-06T02:55:35.679Z,39.79
2023-02-06T02:56:35.404Z,36.59
2023-02-06T02:57:35.475Z,38.39
2023-02-06T02:58:35.480Z,37.55
2023-02-06T02:59:35.518Z,39.18
2023-02-06T03:00:35.514Z,37.58
2023-02-06T03:01:35.578Z,37.11
2023-02-06T03:02:35.584Z,37.94
2023-02-06T03:03:35.609Z,36.04
2023-02-06T03:04:35.663Z,37.16
2023-02-06T03:05:35.933Z,37.64
2023-02-06T03:06:35.707Z,39.07
2023-02-06T03:07:35.757Z,38.74
2023-02-06T03:08:35.805Z,39.19
2023-02-06T03:09:35.830Z,37.57
2023-02-06T03:10:35.838Z,37.18
2023-02-06T03:11:35.896Z,38.47
2023-02-06T03:12:35.925Z,35.89
2023-02-06T03:13:35.967Z,37.68
2023-02-06T03:14:35.967Z,36.43
2023-02-06T03:15:36.285Z,36.58
2023-02-06T03:16:36.093Z,35.86
2023-02-06T03:17:36.071Z,35.94
2023-02-06T03:18:36.100Z,37.10
2023-02-06T03:19:36.221Z,38.04
2023-02-06T03:20:36.155Z,37.64
2023-02-06T03:21:36.174Z,37.12
2023-02-06T03:22:36.232Z,37.21
2023-02-06T03:23:37.579Z,37.34
2023-02-06T03:24:36.301Z,35.54
2023-02-06T03:25:36.591Z,37.37
2023-02-06T03:26:36.344Z,34.67
2023-02-06T03:27:36.360Z,38.06
2023-02-06T03:28:36.402Z,35.20
2023-02-06T03:29:36.424Z,36.12
2023-02-06T03:30:36.491Z,35.85
2023-02-06T03:31:36.519Z,36.22
2023-02-06T03:32:36.514Z,36.49
2023-02-06T03:33:36.521Z,34.74
2023-02-06T03:34:36.570Z,36.16
2023-02-06T03:35:36.917Z,32.92
2023-02-06T03:36:36.637Z,34.06
2023-02-06T03:37:36.653Z,32.84
2023-02-06T03:38:36.687Z,36.12
2023-02-06T03:39:36.700Z,36.82
2023-02-06T03:40:36.768Z,36.72
2023-02-06T03:41:36.823Z,36.31
2023-02-06T03:42:36.812Z,34.57
2023-02-06T03:43:36.867Z,33.42
2023-02-06T03:44:36.924Z,31.74
2023-02-06T03:45:37.175Z,33.01
2023-02-06T03:46:36.966Z,33.90
2023-02-06T03:47:36.971Z,35.41
2023-02-06T03:48:37.016Z,34.33
2023-02-06T03:49:36.995Z,33.53
2023-02-06T03:50:37.039Z,33.69
2023-02-06T03:51:37.104Z,34.47
2023-02-06T03:52:37.090Z,35.74
2023-02-06T03:53:37.152Z,34.60
2023-02-06T03:54:37.190Z,34.36
2023-02-06T03:55:37.560Z,34.64
2023-02-06T03:56:37.215Z,35.51
2023-02-06T03:57:37.254Z,33.70
2023-02-06T03:58:37.259Z,33.00
2023-02-06T03:59:37.330Z,33.41
2023-02-06T04:00:37.318Z,32.86
2023-02-06T04:01:37.396Z,33.10
2023-02-06T04:02:37.478Z,33.27
2023-02-06T04:03:37.422Z,30.28
2023-02-06T04:04:37.414Z,34.74
2023-02-06T04:05:37.671Z,33.33
2023-02-06T04:06:37.486Z,31.42
2023-02-06T04:07:37.512Z,32.09
2023-02-06T04:08:37.532Z,33.35
2023-02-06T04:09:37.545Z,33.04
2023-02-06T04:10:37.555Z,32.43
2023-02-06T04:11:37.613Z,32.03
2023-02-06T04:12:37.624Z,30.23
2023-02-06T04:13:37.658Z,33.81
2023-02-06T04:14:37.720Z,34.04
2023-02-06T04:15:38.021Z,34.01
2023-02-06T04:16:37.805Z,33.06
2023-02-06T04:17:53.655Z,33.05
2023-02-06T04:18:38.824Z,33.18
2023-02-06T04:19:37.764Z,33.40
2023-02-06T04:20:37.763Z,33.58
2023-02-06T04:21:37.768Z,32.13
2023-02-06T04:22:37.740Z,33.03
2023-02-06T04:23:37.740Z,33.36
2023-02-06T04:24:37.724Z,33.09
2023-02-06T04:25:38.043Z,30.44
2023-02-06T04:26:37.668Z,32.11
2023-02-06T04:27:37.652Z,31.64
2023-02-06T04:28:37.668Z,31.61
2023-02-06T04:29:37.625Z,31.51
2023-02-06T04:30:37.674Z,31.65
2023-02-06T04:31:37.678Z,30.44
2023-02-06T04:32:37.588Z,30.79
2023-02-06T04:33:37.624Z,31.82
2023-02-06T04:34:37.594Z,31.44
2023-02-06T04:35:37.850Z,29.77
2023-02-06T04:36:37.671Z,31.46
2023-02-06T04:37:37.706Z,30.44
2023-02-06T04:38:37.721Z,32.85
2023-02-06T04:39:37.748Z,31.00
2023-02-06T04:40:37.769Z,30.38
2023-02-06T04:41:37.810Z,31.98
2023-02-06T04:42:37.812Z,31.52
2023-02-06T04:43:37.857Z,29.80
2023-02-06T04:44:37.860Z,29.63
2023-02-06T04:45:38.212Z,30.86
2023-02-06T04:46:37.921Z,31.85
2023-02-06T04:47:37.943Z,28.48
2023-02-06T04:48:37.960Z,31.55
2023-02-06T04:49:38.025Z,28.36
2023-02-06T04:50:38.047Z,31.65
2023-02-06T04:51:38.065Z,28.02
2023-02-06T04:52:38.085Z,26.94
2023-02-06T04:53:38.091Z,30.14
2023-02-06T04:54:38.145Z,28.68
2023-02-06T04:55:38.450Z,28.76
2023-02-06T04:56:38.148Z,28.40
2023-02-06T04:57:38.223Z,28.99
2023-02-06T04:58:38.246Z,29.95
2023-02-06T04:59:38.277Z,30.13
2023-02-06T05:00:38.843Z,31.45
2023-02-06T05:01:38.402Z,27.58
2023-02-06T05:02:38.433Z,29.18
2023-02-06T05:03:38.443Z,27.06
2023-02-06T05:04:38.432Z,27.80
2023-02-06T05:05:38.463Z,27.17
2023-02-06T05:06:38.525Z,29.80
2023-02-06T05:07:38.543Z,28.72
2023-02-06T05:08:38.586Z,26.09
2023-02-06T05:09:38.613Z,28.54
2023-02-06T05:10:38.673Z,28.82
2023-02-06T05:11:38.675Z,28.06
2023-02-06T05:12:38.741Z,27.96
2023-02-06T05:13:38.769Z,26.97
2023-02-06T05:14:38.821Z,26.22
2023-02-06T05:15:39.136Z,27.63
2023-02-06T05:16:38.892Z,26.62
2023-02-06T05:17:38.970Z,30.61
2023-02-06T05:18:38.978Z,27.95
2023-02-06T05:19:39.028Z,28.11
2023-02-06T05:20:39.057Z,27.56
2023-02-06T05:21:39.131Z,26.50
2023-02-06T05:29:39.384Z,26.78
2023-02-06T05:30:39.494Z,29.11
2023-02-06T05:31:39.587Z,26.74
2023-02-06T05:32:39.511Z,28.94
2023-02-06T05:33:39.555Z,29.44
2023-02-06T05:34:39.644Z,25.00
2023-02-06T05:35:39.671Z,28.19
2023-02-06T05:36:39.705Z,26.43
2023-02-06T05:37:39.752Z,28.56
2023-02-06T05:38:39.773Z,25.84
2023-02-06T05:39:39.840Z,27.44
2023-02-06T05:40:39.856Z,26.20
2023-02-06T05:41:39.894Z,27.60
2023-02-06T05:42:39.919Z,31.28
2023-02-06T05:43:39.970Z,26.96
2023-02-06T05:44:40.009Z,26.04
2023-02-06T05:45:40.420Z,27.00
2023-02-06T05:46:40.144Z,26.43
2023-02-06T05:47:40.146Z,27.25
2023-02-06T05:48:40.200Z,27.39
2023-02-06T05:49:40.259Z,27.95
2023-02-06T05:50:42.032Z,28.99
2023-02-06T05:51:40.302Z,28.85
2023-02-06T05:52:40.268Z,29.91
2023-02-06T05:53:40.270Z,26.44
2023-02-06T05:54:40.265Z,27.08
2023-02-06T05:55:40.272Z,28.34
2023-02-06T05:56:40.261Z,30.13
2023-02-06T05:57:40.272Z,29.38
2023-02-06T05:58:40.285Z,27.72
2023-02-06T05:59:40.215Z,28.32
2023-02-06T06:02:59.401Z,25.00
2023-02-06T06:03:59.575Z,25.00
2023-02-06T06:45:59.534Z,87.47
2023-02-06T08:45:02.646Z,180.84
2023-02-06T08:48:02.475Z,156.86
2023-02-06T08:49:02.474Z,156.19
2023-02-06T08:50:03.710Z,150.07
2023-02-06T08:51:02.573Z,162.88
2023-02-06T08:52:02.629Z,172.57
2023-02-06T08:53:02.623Z,170.79
2023-02-06T08:54:02.694Z,163.50
2023-02-06T08:55:02.737Z,161.01
2023-02-06T08:56:02.800Z,157.80
2023-02-06T08:57:02.854Z,159.17
2023-02-06T08:58:02.892Z,160.25
2023-02-06T08:59:02.932Z,160.72
2023-02-06T09:00:02.983Z,161.03
2023-02-06T09:01:03.005Z,158.57
2023-02-06T09:02:03.064Z,157.94
2023-02-06T09:03:03.084Z,160.58
2023-02-06T09:04:03.173Z,159.41
2023-02-06T09:05:03.177Z,157.99
2023-02-06T09:06:09.759Z,159.70
2023-02-06T09:07:04.222Z,159.83
2023-02-06T09:08:03.216Z,157.54
2023-02-06T09:09:03.158Z,158.10
2023-02-06T09:10:03.157Z,156.56
2023-02-06T09:11:03.163Z,160.39
2023-02-06T09:12:03.139Z,160.44
2023-02-06T09:13:03.165Z,158.75
2023-02-06T09:14:03.132Z,158.05
2023-02-06T09:15:03.143Z,153.79
2023-02-06T09:16:03.179Z,152.59
2023-02-06T09:17:03.095Z,152.50
2023-02-06T09:18:03.091Z,157.87
2023-02-06T09:19:03.098Z,155.65
2023-02-06T09:20:03.075Z,157.87
2023-02-06T09:21:03.037Z,157.29
2023-02-06T09:22:03.041Z,152.86
2023-02-06T09:23:03.071Z,155.51
2023-02-06T09:24:03.031Z,148.85
2023-02-06T09:25:03.037Z,153.00
2023-02-06T09:26:03.005Z,154.11
2023-02-06T09:27:02.983Z,153.69
2023-02-06T09:28:03.089Z,152.12
2023-02-06T09:29:02.981Z,149.58
2023-02-06T09:30:03.562Z,148.06
2023-02-06T09:31:03.098Z,149.01
2023-02-06T09:32:03.014Z,147.61
2023-02-06T09:33:03.050Z,147.76
2023-02-06T09:34:03.035Z,148.26
2023-02-06T09:35:03.181Z,151.34
2023-02-06T09:36:03.083Z,152.80
2023-02-06T09:37:03.115Z,153.76
2023-02-06T09:38:03.080Z,151.59
2023-02-06T09:39:03.141Z,149.08
2023-02-06T09:40:03.186Z,146.30
2023-02-06T09:41:03.182Z,143.23
2023-02-06T09:42:03.224Z,141.69
2023-02-06T09:43:03.290Z,140.29
2023-02-06T09:44:03.283Z,137.58
2023-02-06T09:45:03.740Z,134.15
2023-02-06T09:46:03.521Z,130.63
2023-02-06T09:47:03.434Z,131.02
2023-02-06T09:48:03.460Z,129.92
2023-02-06T09:49:03.536Z,125.04
2023-02-06T09:50:03.618Z,121.24
2023-02-06T09:51:03.688Z,122.58
2023-02-06T09:52:03.619Z,118.88
2023-02-06T09:53:03.717Z,108.74
2023-02-06T09:54:03.739Z,104.08
2023-02-06T09:55:03.777Z,98.95
2023-02-06T09:56:04.196Z,96.23
2023-02-06T09:57:03.839Z,62.56
2023-02-06T09:58:03.873Z,41.18
2023-02-06T09:59:03.913Z,41.27
2023-02-06T10:00:04.009Z,61.00
2023-02-06T10:01:04.276Z,57.85
2023-02-06T10:02:04.230Z,55.92
2023-02-06T10:03:04.177Z,58.66
2023-02-06T10:04:04.183Z,65.02
2023-02-06T10:05:04.166Z,59.33
2023-02-06T10:06:04.720Z,52.89
2023-02-06T10:07:04.252Z,50.11
2023-02-06T10:08:04.318Z,47.86
2023-02-06T10:09:04.360Z,51.82
2023-02-06T10:10:04.404Z,53.28
2023-02-06T10:11:04.457Z,54.00
2023-02-06T10:12:04.488Z,50.24
2023-02-06T10:13:04.488Z,48.30
2023-02-06T10:14:04.529Z,52.58
2023-02-06T10:15:04.627Z,52.91
2023-02-06T10:16:04.703Z,48.65
2023-02-06T10:17:04.697Z,40.58
2023-02-06T10:18:04.762Z,34.25
2023-02-06T10:19:04.776Z,25.73
2023-02-06T10:20:04.974Z,27.65
2023-02-06T10:21:05.285Z,32.05
2023-02-06T10:22:05.001Z,52.32
2023-02-06T10:23:04.984Z,34.92
2023-02-06T10:24:05.053Z,29.63
2023-02-06T10:25:05.064Z,30.67
2023-02-06T10:26:05.204Z,25.00
2023-02-06T10:27:05.122Z,27.47
2023-02-06T10:28:05.192Z,26.76
2023-02-06T10:29:05.192Z,26.65
2023-02-06T10:30:05.227Z,25.00
2023-02-06T10:31:05.345Z,26.17
2023-02-06T10:32:05.344Z,25.17
2023-02-06T10:33:07.901Z,28.90
2023-02-06T10:34:05.475Z,29.03
2023-02-06T10:35:05.366Z,25.10
2023-02-06T10:36:05.362Z,21.79
2023-02-06T10:37:05.410Z,25.01
2023-02-06T10:38:05.377Z,12.07
2023-02-06T10:39:05.357Z,25.00
2023-02-06T10:40:05.403Z,29.78
2023-02-06T10:41:05.727Z,52.55
2023-02-06T10:42:05.406Z,77.32
2023-02-06T10:43:05.387Z,82.30
2023-02-06T10:44:05.427Z,86.28
2023-02-06T10:45:18.992Z,92.29
2023-02-06T10:46:06.750Z,92.48
2023-02-06T10:47:05.496Z,90.97
2023-02-06T10:48:05.418Z,89.49
2023-02-06T10:49:05.433Z,81.39
2023-02-06T10:50:05.444Z,64.18
2023-02-06T10:51:05.756Z,33.59
2023-02-06T10:52:05.447Z,0.00
2023-02-06T10:53:05.412Z,0.00
2023-02-06T10:54:05.460Z,12.66
2023-02-06T10:55:05.474Z,17.29
2023-02-06T10:56:05.511Z,20.01
2023-02-06T10:57:06.210Z,18.29
2023-02-06T11:12:06.838Z,31.78
2023-02-06T11:18:06.854Z,97.02
2023-02-06T11:19:07.034Z,99.34
2023-02-06T11:20:07.049Z,101.39
2023-02-06T11:21:07.054Z,107.00
2023-02-06T11:22:07.135Z,109.09
2023-02-06T11:23:07.197Z,111.11
2023-02-06T11:24:07.215Z,114.59
2023-02-06T11:25:07.236Z,117.23
2023-02-06T11:26:07.281Z,121.25
2023-02-06T11:27:07.741Z,123.01
2023-02-06T11:28:07.379Z,124.75
2023-02-06T11:29:08.291Z,125.67
2023-02-06T11:30:07.420Z,127.23
2023-02-06T11:31:07.451Z,127.85
2023-02-06T11:32:07.722Z,128.20
2023-02-06T11:33:07.538Z,125.73
2023-02-06T11:34:07.565Z,126.04
2023-02-06T11:35:08.508Z,126.05
2023-02-06T11:36:07.508Z,126.09
2023-02-06T11:37:07.702Z,127.51
2023-02-06T11:38:07.497Z,129.68
2023-02-06T11:39:07.540Z,130.92
2023-02-06T11:51:07.632Z,36.14
2023-02-06T11:52:07.670Z,36.94
2023-02-06T11:53:07.767Z,37.14
2023-02-06T11:54:07.823Z,36.46
2023-02-06T11:55:07.886Z,37.58
2023-02-06T11:56:07.931Z,38.59
2023-02-06T11:57:08.039Z,35.09
2023-02-06T11:58:08.060Z,37.80
2023-02-06T11:59:08.111Z,42.84
2023-02-06T12:00:08.231Z,38.80
2023-02-06T12:01:08.269Z,32.31
2023-02-06T12:02:08.424Z,27.86
2023-02-06T12:03:08.395Z,28.46
2023-02-06T12:04:08.421Z,25.00
2023-02-06T12:05:08.473Z,24.97
2023-02-06T12:06:08.555Z,27.16
2023-02-06T12:07:08.726Z,27.25
2023-02-06T12:08:08.697Z,25.28
2023-02-06T12:09:08.733Z,25.01
2023-02-06T12:10:08.881Z,25.81
2023-02-06T12:11:09.368Z,58.56
2023-02-06T12:12:09.284Z,60.02
2023-02-06T12:13:09.033Z,52.75
2023-02-06T12:41:10.892Z,172.23
2023-02-06T12:42:10.940Z,177.69
2023-02-06T12:43:10.988Z,171.61
2023-02-06T12:44:11.093Z,174.18
2023-02-06T12:45:11.177Z,173.77
2023-02-06T12:46:11.249Z,175.04
2023-02-06T12:47:11.323Z,175.39
2023-02-06T12:48:12.333Z,177.45
2023-02-06T12:49:11.438Z,179.13
2023-02-06T12:50:11.464Z,177.47
2023-02-06T12:51:11.558Z,177.51
2023-02-06T12:52:11.625Z,176.48
2023-02-06T12:53:11.688Z,175.42
2023-02-06T12:54:11.729Z,174.08
2023-02-06T12:55:11.774Z,172.95
2023-02-06T12:56:11.846Z,173.31
2023-02-06T12:57:11.935Z,173.18
2023-02-06T12:58:11.989Z,172.75
2023-02-06T12:59:12.072Z,174.55
2023-02-06T13:00:12.121Z,171.13
2023-02-06T13:01:25.858Z,168.79
2023-02-06T13:02:13.292Z,168.83
2023-02-06T13:03:12.281Z,168.87
2023-02-06T13:04:12.222Z,169.69
2023-02-06T13:05:12.221Z,169.44
2023-02-06T13:06:12.226Z,171.07
2023-02-06T13:07:12.245Z,166.85
2023-02-06T13:08:12.776Z,168.67
2023-02-06T13:09:12.274Z,165.24
2023-02-06T13:10:12.336Z,165.18
2023-02-06T13:11:12.412Z,165.09
2023-02-06T13:12:12.432Z,164.48
2023-02-06T13:13:12.517Z,163.33
2023-02-06T13:14:12.520Z,162.26
2023-02-06T13:15:12.553Z,159.69
2023-02-06T13:16:12.602Z,155.55
2023-02-06T13:17:12.655Z,155.05
2023-02-06T13:18:12.764Z,157.51
2023-02-06T13:19:12.760Z,161.10
2023-02-06T13:20:12.823Z,163.86
2023-02-06T13:21:12.809Z,166.47
2023-02-06T13:22:12.858Z,162.03
2023-02-06T13:23:12.883Z,159.44
2023-02-06T13:24:12.944Z,160.74
2023-02-06T13:25:12.938Z,162.59
2023-02-06T13:26:12.985Z,162.30
2023-02-06T13:27:13.064Z,159.20
2023-02-06T13:28:13.142Z,163.37
2023-02-06T13:29:13.150Z,164.48
2023-02-06T13:30:13.219Z,164.27
2023-02-06T13:31:13.345Z,163.01
2023-02-06T13:32:13.246Z,162.18
2023-02-06T13:33:13.345Z,160.26
2023-02-06T13:34:13.364Z,156.16
2023-02-06T13:35:13.418Z,151.99
2023-02-06T13:36:13.441Z,150.08
2023-02-06T13:37:13.479Z,150.40
2023-02-06T13:38:13.497Z,151.25
2023-02-06T13:39:13.533Z,150.64
2023-02-06T13:40:13.554Z,150.69
2023-02-06T13:41:13.574Z,150.21
2023-02-06T13:42:13.577Z,148.74
2023-02-06T13:43:13.618Z,152.94
2023-02-06T13:44:13.637Z,149.61
2023-02-06T13:45:13.671Z,150.87
2023-02-06T13:46:13.719Z,148.93
2023-02-06T13:47:13.707Z,150.11
2023-02-06T13:48:13.772Z,150.82
2023-02-06T13:49:13.778Z,150.15
2023-02-06T13:50:13.840Z,150.89
2023-02-06T13:51:13.864Z,153.04
2023-02-06T13:52:13.875Z,154.11
2023-02-06T13:53:13.897Z,152.73
2023-02-06T13:54:13.960Z,152.60
2023-02-06T13:55:13.958Z,151.44
2023-02-06T13:56:13.976Z,148.29
2023-02-06T13:57:15.775Z,148.23
2023-02-06T13:58:14.301Z,148.18
2023-02-06T13:59:14.063Z,148.92
2023-02-06T14:00:14.105Z,147.46
2023-02-06T14:01:14.112Z,147.07
2023-02-06T14:02:14.155Z,148.35
2023-02-06T14:03:14.187Z,150.76
2023-02-06T14:04:14.235Z,146.88
2023-02-06T14:05:14.231Z,141.23
2023-02-06T14:06:14.243Z,142.85
2023-02-06T14:07:14.280Z,143.59
2023-02-06T14:08:14.353Z,143.91
2023-02-06T14:09:14.364Z,141.87
2023-02-06T14:10:14.375Z,144.59
2023-02-06T14:11:14.432Z,142.41
2023-02-06T14:12:14.450Z,143.42
2023-02-06T14:13:14.499Z,145.91
2023-02-06T14:14:14.469Z,145.63
2023-02-06T14:15:14.546Z,143.11
2023-02-06T14:16:14.576Z,139.45
2023-02-06T14:17:14.589Z,139.30
2023-02-06T14:18:14.628Z,141.77
2023-02-06T14:19:14.642Z,143.38
2023-02-06T14:20:14.669Z,142.97
2023-02-06T14:21:14.701Z,142.10
2023-02-06T14:22:14.749Z,140.68
2023-02-06T14:23:14.808Z,139.79
2023-02-06T14:24:14.813Z,135.47
2023-02-06T14:25:14.880Z,137.78
2023-02-06T14:26:14.896Z,140.02
2023-02-06T14:27:14.924Z,140.83
2023-02-06T14:28:15.067Z,134.17
2023-02-06T14:29:15.069Z,137.07
2023-02-06T14:30:15.092Z,133.77
2023-02-06T14:31:15.240Z,136.79
2023-02-06T14:32:15.137Z,135.57
2023-02-06T14:33:15.217Z,135.81
2023-02-06T14:34:15.249Z,131.42
2023-02-06T14:35:16.283Z,132.81
2023-02-06T14:36:15.308Z,130.84
2023-02-06T14:37:15.344Z,130.99
2023-02-06T14:38:15.385Z,129.79
2023-02-06T14:39:15.424Z,126.89
2023-02-06T14:40:15.454Z,130.81
2023-02-06T14:41:15.515Z,132.61
2023-02-06T14:42:15.569Z,131.30
2023-02-06T14:43:15.620Z,132.06
2023-02-06T14:44:16.118Z,133.25
2023-02-06T14:45:15.652Z,130.12
2023-02-06T14:46:15.814Z,128.28
2023-02-06T14:47:17.861Z,132.41
2023-02-06T14:48:15.765Z,136.02
2023-02-06T14:49:15.761Z,134.36
2023-02-06T14:50:15.793Z,127.45
2023-02-06T14:51:15.771Z,127.24
2023-02-06T14:52:15.782Z,126.38
2023-02-06T14:53:15.830Z,129.38
2023-02-06T14:54:15.848Z,121.10
2023-02-06T14:55:15.834Z,125.04
2023-02-06T14:56:15.884Z,125.34
2023-02-06T14:57:15.867Z,125.10
2023-02-06T14:58:15.926Z,122.20
2023-02-06T14:59:15.941Z,123.97
2023-02-06T15:00:15.932Z,124.79
2023-02-06T15:01:15.951Z,121.92
2023-02-06T15:02:15.938Z,119.51
2023-02-06T15:03:16.012Z,124.04
2023-02-06T15:04:16.020Z,123.69
2023-02-06T15:05:16.027Z,122.30
2023-02-06T15:06:16.087Z,120.31
2023-02-06T15:07:16.093Z,114.48
2023-02-06T15:08:16.107Z,118.05
2023-02-06T15:09:16.125Z,120.44
2023-02-06T15:10:16.123Z,114.10
2023-02-06T15:11:16.114Z,110.43
2023-02-06T15:12:16.148Z,114.89
2023-02-06T15:13:16.160Z,117.57
2023-02-06T15:14:16.207Z,119.31
2023-02-06T15:15:16.195Z,120.00
2023-02-06T15:16:16.333Z,117.26
2023-02-06T15:17:16.235Z,120.29
2023-02-06T15:18:16.279Z,115.99
2023-02-06T15:19:16.272Z,114.20
2023-02-06T15:20:16.283Z,114.76
2023-02-06T15:21:16.363Z,117.64
2023-02-06T15:22:16.308Z,117.76
2023-02-06T15:23:18.313Z,115.45
2023-02-06T15:24:16.357Z,118.00
2023-02-06T15:25:16.350Z,117.85
2023-02-06T15:26:16.386Z,110.48
2023-02-06T15:27:16.383Z,113.43
2023-02-06T15:28:16.468Z,115.26
2023-02-06T15:29:16.561Z,121.00
2023-02-06T15:30:16.559Z,118.71
2023-02-06T15:31:16.616Z,115.96
2023-02-06T15:32:16.682Z,118.14
2023-02-06T15:33:16.714Z,118.08
2023-02-06T15:34:16.788Z,115.52
2023-02-06T15:35:16.851Z,115.03
2023-02-06T15:36:16.870Z,118.58
2023-02-06T15:37:16.916Z,116.07
2023-02-06T15:38:16.991Z,116.64
2023-02-06T15:39:17.077Z,115.91
2023-02-06T15:40:17.108Z,112.33
2023-02-06T15:41:17.186Z,114.58
2023-02-06T15:42:17.283Z,112.94
2023-02-06T15:43:17.304Z,112.68
2023-02-06T15:44:17.340Z,111.61
2023-02-06T15:45:17.433Z,115.70
2023-02-06T15:46:17.542Z,117.14
2023-02-06T15:47:17.493Z,119.36
2023-02-06T15:48:17.606Z,114.96
2023-02-06T15:49:18.291Z,116.01
2023-02-06T15:50:17.825Z,111.84
2023-02-06T15:51:17.775Z,112.55
2023-02-06T15:52:17.829Z,110.06
2023-02-06T15:53:17.866Z,111.91
2023-02-06T15:54:17.947Z,109.76
2023-02-06T15:55:18.021Z,111.15
2023-02-06T15:56:18.078Z,113.91
2023-02-06T15:57:18.111Z,111.31
2023-02-06T15:58:18.189Z,108.06
2023-02-06T15:59:18.269Z,104.73
2023-02-06T16:00:18.335Z,106.45
2023-02-06T16:01:18.460Z,107.03
2023-02-06T16:02:18.499Z,107.84
2023-02-06T16:03:18.544Z,110.85
2023-02-06T16:04:18.603Z,112.82
2023-02-06T16:05:18.747Z,110.82
2023-02-06T16:06:18.757Z,113.47
2023-02-06T16:07:18.833Z,109.42
2023-02-06T16:08:18.911Z,110.86
2023-02-06T16:09:18.979Z,114.32
2023-02-06T16:10:19.047Z,111.79
2023-02-06T16:11:19.114Z,115.04
2023-02-06T16:12:19.142Z,116.85
2023-02-06T16:13:19.248Z,116.69
2023-02-06T16:14:19.321Z,116.46
2023-02-06T16:15:19.386Z,116.06
2023-02-06T16:16:19.509Z,117.41
2023-02-06T16:17:19.513Z,119.42
2023-02-06T16:18:19.615Z,119.22
2023-02-06T16:19:20.308Z,116.96
2023-02-06T16:20:19.700Z,116.65
2023-02-06T16:21:19.794Z,116.21
2023-02-06T16:22:19.847Z,118.33
2023-02-06T16:23:19.889Z,121.05
2023-02-06T16:24:19.946Z,123.25
2023-02-06T16:25:20.038Z,125.15
2023-02-06T16:26:20.076Z,125.10
2023-02-06T16:27:20.179Z,123.70
2023-02-06T16:28:20.278Z,123.21
2023-02-06T16:29:20.286Z,125.54
2023-02-06T16:30:20.317Z,126.01
2023-02-06T16:31:20.477Z,128.28
2023-02-06T16:32:20.471Z,128.26
2023-02-06T16:33:20.507Z,126.72
2023-02-06T16:34:20.569Z,129.09
2023-02-06T16:35:20.655Z,129.51
2023-02-06T16:36:20.700Z,130.10
2023-02-06T16:37:20.779Z,127.88
2023-02-06T16:38:20.800Z,129.82
2023-02-06T16:39:23.320Z,129.88
2023-02-06T16:40:20.872Z,131.47
2023-02-06T16:41:20.882Z,132.57
2023-02-06T16:42:20.923Z,129.48
2023-02-06T16:50:21.004Z,132.45
2023-02-06T16:51:21.051Z,133.16
2023-02-06T16:52:21.074Z,132.81